createdAt,value
2022-09-14T00:00:07.270Z,97.82
2022-09-14T00:02:33.896Z,98.25
2022-09-14T00:05:00.479Z,97.88
2022-09-14T00:07:27.035Z,97.98
2022-09-14T00:09:53.560Z,97.51
2022-09-14T00:12:20.092Z,98.10
2022-09-14T00:14:47.962Z,97.79
2022-09-14T00:17:14.506Z,97.93
2022-09-14T00:19:41.071Z,98.18
2022-09-14T00:22:07.643Z,98.23
2022-09-14T00:24:34.135Z,98.31
2022-09-14T00:27:00.709Z,98.40
2022-09-14T00:29:27.205Z,98.28
2022-09-14T00:31:55.301Z,98.25
2022-09-14T00:34:22.159Z,97.80
2022-09-14T00:36:50.998Z,98.46
2022-09-14T00:39:19.247Z,98.72
2022-09-14T00:41:47.579Z,98.51
2022-09-14T00:44:51.499Z,99.22
2022-09-14T00:47:19.533Z,99.16
2022-09-14T00:49:46.114Z,98.95
2022-09-14T00:52:16.197Z,99.38
2022-09-14T00:54:45.603Z,99.32
2022-09-14T00:57:12.463Z,99.80
2022-09-14T00:59:41.551Z,99.44
2022-09-14T01:02:10.853Z,99.43
2022-09-14T01:04:38.793Z,99.68
2022-09-14T01:07:17.677Z,99.37
2022-09-14T01:09:51.408Z,99.09
2022-09-14T01:12:26.590Z,99.12
2022-09-14T01:15:03.055Z,99.42
2022-09-14T01:17:35.722Z,99.48
2022-09-14T01:20:20.500Z,99.33
2022-09-14T01:22:52.931Z,99.29
2022-09-14T01:25:57.183Z,99.53
2022-09-14T01:28:30.252Z,99.56
2022-09-14T01:31:01.674Z,99.41
2022-09-14T01:33:33.347Z,99.28
2022-09-14T01:36:03.201Z,99.30
2022-09-14T01:38:33.878Z,99.45
2022-09-14T01:41:06.981Z,99.24
2022-09-14T01:43:38.309Z,99.33
2022-09-14T01:46:08.135Z,98.87
2022-09-14T01:48:39.300Z,99.09
2022-09-14T01:51:09.997Z,99.11
2022-09-14T01:53:40.814Z,98.65
2022-09-14T01:56:12.535Z,98.50
2022-09-14T01:58:44.865Z,98.33
2022-09-14T02:01:15.074Z,98.71
2022-09-14T02:03:46.948Z,98.82
2022-09-14T02:06:16.105Z,98.49
2022-09-14T02:08:42.781Z,98.79
2022-09-14T02:11:09.362Z,98.87
2022-09-14T02:13:36.071Z,98.72
2022-09-14T02:16:04.500Z,99.06
2022-09-14T02:18:31.687Z,99.29
2022-09-14T02:21:02.225Z,98.76
2022-09-14T02:23:28.946Z,99.07
2022-09-14T02:25:55.786Z,98.94
2022-09-14T02:28:22.484Z,98.93
2022-09-14T02:31:01.513Z,99.16
2022-09-14T02:33:38.594Z,99.53
2022-09-14T02:36:11.203Z,99.61
2022-09-14T02:38:45.555Z,99.41
2022-09-14T02:41:18.898Z,99.03
2022-09-14T02:43:51.363Z,99.14
2022-09-14T02:46:26.490Z,100.00
2022-09-14T02:49:01.585Z,99.24
2022-09-14T02:51:34.250Z,99.38
2022-09-14T02:54:07.167Z,99.67
2022-09-14T02:56:35.963Z,99.29
2022-09-14T02:59:02.520Z,99.46
2022-09-14T03:01:29.039Z,99.33
2022-09-14T03:03:56.899Z,99.86
2022-09-14T03:06:23.460Z,99.44
2022-09-14T03:08:50.506Z,99.80
2022-09-14T03:11:17.124Z,99.44
2022-09-14T03:13:43.641Z,99.46
2022-09-14T03:16:11.798Z,99.73
2022-09-14T03:18:38.813Z,99.58
2022-09-14T03:21:08.216Z,99.35
2022-09-14T03:23:38.420Z,99.39
2022-09-14T03:26:09.451Z,99.49
2022-09-14T03:28:36.412Z,99.54
2022-09-14T03:31:04.096Z,99.88
2022-09-14T03:33:30.985Z,100.00
2022-09-14T03:35:57.497Z,100.00
2022-09-14T03:38:25.368Z,100.00
2022-09-14T03:40:51.864Z,100.00
2022-09-14T03:43:18.380Z,100.00
2022-09-14T03:45:44.952Z,100.00
2022-09-14T03:48:11.489Z,100.00
2022-09-14T03:50:38.121Z,100.00
2022-09-14T03:53:04.629Z,100.00
2022-09-14T03:55:32.484Z,100.00
2022-09-14T03:57:59.003Z,100.00
2022-09-14T04:00:25.678Z,100.00
2022-09-14T04:02:52.340Z,100.00
2022-09-14T04:05:21.845Z,100.00
2022-09-14T04:07:48.713Z,100.00
2022-09-14T04:10:15.271Z,100.00
2022-09-14T04:12:43.140Z,100.00
2022-09-14T04:15:09.965Z,100.00
2022-09-14T04:17:36.517Z,100.00
2022-09-14T04:20:03.274Z,100.00
2022-09-14T04:22:29.773Z,100.00
2022-09-14T04:24:56.259Z,100.00
2022-09-14T04:27:22.773Z,100.00
2022-09-14T04:29:50.882Z,100.00
2022-09-14T04:32:17.583Z,100.00
2022-09-14T04:34:44.102Z,100.00
2022-09-14T04:37:10.606Z,100.00
2022-09-14T04:39:37.120Z,100.00
2022-09-14T04:42:03.892Z,100.00
2022-09-14T04:44:30.396Z,100.00
2022-09-14T04:46:58.337Z,100.00
2022-09-14T04:49:24.957Z,100.00
2022-09-14T04:51:51.510Z,100.00
2022-09-14T04:54:18.358Z,100.00
2022-09-14T04:56:45.784Z,100.00
2022-09-14T04:59:12.817Z,100.00
2022-09-14T05:01:41.677Z,100.00
2022-09-14T05:04:10.663Z,100.00
2022-09-14T05:06:38.972Z,100.00
2022-09-14T05:09:07.844Z,100.00
2022-09-14T05:11:35.935Z,100.00
2022-09-14T05:14:03.207Z,100.00
2022-09-14T05:16:31.416Z,100.00
2022-09-14T05:18:59.176Z,100.00
2022-09-14T05:21:27.834Z,100.00
2022-09-14T05:23:55.304Z,100.00
2022-09-14T05:26:22.765Z,100.00
2022-09-14T05:28:50.883Z,100.00
2022-09-14T05:31:17.482Z,100.00
2022-09-14T05:33:44.228Z,100.00
2022-09-14T05:36:10.876Z,100.00
2022-09-14T05:38:40.183Z,100.00
2022-09-14T05:41:08.313Z,100.00
2022-09-14T05:43:34.830Z,100.00
2022-09-14T05:46:02.191Z,100.00
2022-09-14T05:48:31.115Z,100.00
2022-09-14T05:50:59.174Z,100.00
2022-09-14T05:53:25.940Z,100.00
2022-09-14T05:56:00.744Z,100.00
2022-09-14T05:58:27.528Z,100.00
2022-09-14T06:00:54.010Z,100.00
2022-09-14T06:03:20.524Z,100.00
2022-09-14T06:05:47.100Z,100.00
2022-09-14T06:08:13.747Z,100.00
2022-09-14T06:10:40.230Z,100.00
2022-09-14T06:13:08.086Z,100.00
2022-09-14T06:15:34.922Z,100.00
2022-09-14T06:18:01.487Z,100.00
2022-09-14T06:20:28.003Z,100.00
2022-09-14T06:22:55.483Z,100.00
2022-09-14T06:25:22.028Z,100.00
2022-09-14T06:27:48.552Z,100.00
2022-09-14T06:30:16.561Z,100.00
2022-09-14T06:32:43.086Z,100.00
2022-09-14T06:35:12.419Z,100.00
2022-09-14T06:37:39.179Z,100.00
2022-09-14T06:40:06.746Z,100.00
2022-09-14T06:42:33.326Z,100.00
2022-09-14T06:44:59.806Z,100.00
2022-09-14T06:47:31.953Z,100.00
2022-09-14T06:49:58.449Z,100.00
2022-09-14T06:52:24.984Z,100.00
2022-09-14T06:54:51.488Z,100.00
2022-09-14T06:57:18.004Z,100.00
2022-09-14T06:59:44.495Z,100.00
2022-09-14T07:02:13.361Z,100.00
2022-09-14T07:04:41.242Z,100.00
2022-09-14T07:07:07.747Z,100.00
2022-09-14T07:09:34.250Z,100.00
2022-09-14T07:12:01.062Z,100.00
2022-09-14T07:14:32.048Z,100.00
2022-09-14T07:16:58.914Z,100.00
2022-09-14T07:19:25.394Z,100.00
2022-09-14T07:21:53.253Z,100.00
2022-09-14T07:24:19.772Z,100.00
2022-09-14T07:26:46.274Z,100.00
2022-09-14T07:29:14.707Z,100.00
2022-09-14T07:31:43.267Z,100.00
2022-09-14T07:34:10.664Z,100.00
2022-09-14T07:36:38.500Z,100.00
2022-09-14T07:39:08.266Z,100.00
2022-09-14T07:41:35.679Z,100.00
2022-09-14T07:44:05.038Z,100.00
2022-09-14T07:46:33.249Z,100.00
2022-09-14T07:49:01.782Z,100.00
2022-09-14T07:51:29.958Z,100.00
2022-09-14T07:53:56.531Z,100.00
2022-09-14T07:56:24.608Z,100.00
2022-09-14T07:58:55.482Z,100.00
2022-09-14T08:01:25.622Z,100.00
2022-09-14T08:03:52.443Z,100.00
2022-09-14T08:06:21.344Z,100.00
2022-09-14T08:08:49.622Z,100.00
2022-09-14T08:11:19.196Z,100.00
2022-09-14T08:13:50.928Z,100.00
2022-09-14T08:16:18.417Z,100.00
2022-09-14T08:18:45.697Z,100.00
2022-09-14T08:21:14.038Z,100.00
2022-09-14T08:23:41.427Z,100.00
2022-09-14T08:26:09.990Z,100.00
2022-09-14T08:28:37.043Z,100.00
2022-09-14T08:31:07.129Z,100.00
2022-09-14T08:33:35.626Z,100.00
2022-09-14T08:36:02.566Z,100.00
2022-09-14T08:38:29.632Z,100.00
2022-09-14T08:40:58.455Z,100.00
2022-09-14T08:43:27.369Z,100.00
2022-09-14T08:46:01.347Z,100.00
2022-09-14T08:48:33.398Z,100.00
2022-09-14T08:50:59.911Z,100.00
2022-09-14T08:53:26.576Z,100.00
2022-09-14T08:55:56.582Z,100.00
2022-09-14T08:58:42.628Z,100.00
2022-09-14T09:01:21.305Z,100.00
2022-09-14T09:04:12.776Z,100.00
2022-09-14T09:06:47.480Z,99.37
2022-09-14T09:09:21.465Z,99.43
2022-09-14T09:11:51.731Z,99.42
2022-09-14T09:14:23.926Z,98.83
2022-09-14T09:16:54.712Z,98.05
2022-09-14T09:19:28.842Z,98.05
2022-09-14T09:21:56.431Z,96.18
2022-09-14T09:24:37.070Z,95.14
2022-09-14T09:27:10.062Z,93.61
2022-09-14T09:29:36.552Z,93.96
2022-09-14T09:32:05.617Z,93.70
2022-09-14T09:34:35.027Z,93.78
2022-09-14T09:37:01.683Z,94.70
2022-09-14T09:39:31.209Z,93.83
2022-09-14T09:42:00.954Z,93.77
2022-09-14T09:44:27.614Z,95.00
2022-09-14T09:46:56.287Z,94.85
2022-09-14T09:49:39.183Z,94.39
2022-09-14T09:52:11.026Z,95.13
2022-09-14T09:54:39.678Z,96.74
2022-09-14T09:57:19.491Z,96.09
2022-09-14T09:59:45.999Z,97.05
2022-09-14T10:02:26.324Z,96.97
2022-09-14T10:05:00.125Z,97.26
2022-09-14T10:07:28.346Z,96.58
2022-09-14T10:10:03.315Z,95.36
2022-09-14T10:12:30.635Z,98.02
2022-09-14T10:15:11.035Z,96.98
2022-09-14T10:17:37.703Z,95.71
2022-09-14T10:20:07.043Z,95.11
2022-09-14T10:22:35.378Z,91.18
2022-09-14T10:25:20.060Z,91.04
2022-09-14T10:27:48.407Z,91.31
2022-09-14T10:30:17.357Z,90.21
2022-09-14T10:32:50.709Z,91.58
2022-09-14T10:35:19.817Z,91.63
2022-09-14T10:38:12.894Z,93.95
2022-09-14T10:40:44.729Z,95.33
2022-09-14T10:43:15.847Z,95.51
2022-09-14T10:45:49.852Z,96.43
2022-09-14T10:48:43.839Z,96.51
2022-09-14T10:51:34.266Z,95.46
2022-09-14T10:54:10.627Z,95.45
2022-09-14T10:56:50.777Z,95.14
2022-09-14T10:59:30.307Z,95.12
2022-09-14T11:02:22.020Z,95.23
2022-09-14T11:05:10.756Z,94.58
2022-09-14T11:07:49.436Z,94.60
2022-09-14T11:10:21.115Z,94.66
2022-09-14T11:12:54.225Z,93.79
2022-09-14T11:15:26.712Z,95.58
2022-09-14T11:18:06.255Z,96.18
2022-09-14T11:20:43.047Z,96.22
2022-09-14T11:23:29.319Z,96.05
2022-09-14T11:26:00.406Z,94.16
2022-09-14T11:28:30.720Z,92.50
2022-09-14T11:31:04.593Z,90.79
2022-09-14T11:33:36.362Z,90.01
2022-09-14T11:36:09.509Z,88.48
2022-09-14T11:38:47.268Z,87.60
2022-09-14T11:41:22.733Z,84.88
2022-09-14T11:43:55.426Z,84.88
2022-09-14T11:46:27.550Z,84.83
2022-09-14T11:49:00.997Z,86.17
2022-09-14T11:51:32.686Z,85.50
2022-09-14T11:54:00.396Z,85.72
2022-09-14T11:56:29.457Z,84.16
2022-09-14T11:58:58.013Z,85.13
2022-09-14T12:01:30.379Z,83.99
2022-09-14T12:04:18.028Z,83.52
2022-09-14T12:06:55.582Z,83.57
2022-09-14T12:09:42.691Z,82.42
2022-09-14T12:12:31.753Z,80.44
2022-09-14T12:15:00.132Z,80.20
2022-09-14T12:17:45.700Z,79.45
2022-09-14T12:20:35.806Z,80.04
2022-09-14T12:23:06.701Z,79.60
2022-09-14T12:25:37.468Z,80.15
2022-09-14T12:28:38.697Z,79.41
2022-09-14T12:31:09.261Z,80.03
2022-09-14T12:33:57.580Z,80.07
2022-09-14T12:36:58.714Z,82.10
2022-09-14T12:39:27.451Z,79.94
2022-09-14T12:42:27.235Z,79.07
2022-09-14T12:44:54.158Z,78.79
2022-09-14T12:47:49.573Z,78.30
2022-09-14T12:50:17.961Z,77.45
2022-09-14T12:52:54.557Z,78.07
2022-09-14T12:55:39.749Z,78.40
2022-09-14T12:58:20.951Z,77.33
2022-09-14T13:00:57.717Z,77.39
2022-09-14T13:03:46.004Z,76.04
2022-09-14T13:06:13.273Z,76.52
2022-09-14T13:08:44.503Z,76.76
2022-09-14T13:11:19.579Z,76.67
2022-09-14T13:13:48.742Z,75.67
2022-09-14T13:16:19.372Z,75.82
2022-09-14T13:18:45.908Z,76.31
2022-09-14T13:21:20.513Z,77.35
2022-09-14T13:23:48.013Z,76.93
2022-09-14T13:26:19.224Z,78.23
2022-09-14T13:28:50.276Z,77.91
2022-09-14T13:31:20.144Z,79.31
2022-09-14T13:33:48.620Z,80.02
2022-09-14T13:36:18.015Z,82.47
2022-09-14T13:38:44.629Z,81.99
2022-09-14T13:41:15.214Z,78.36
2022-09-14T13:43:43.559Z,77.64
2022-09-14T13:46:11.654Z,77.07
2022-09-14T13:48:40.508Z,75.11
2022-09-14T13:51:07.695Z,74.59
2022-09-14T13:53:45.562Z,75.18
2022-09-14T13:56:21.029Z,73.63
2022-09-14T13:58:49.208Z,74.01
2022-09-14T14:01:26.648Z,75.29
2022-09-14T14:03:53.997Z,75.61
2022-09-14T14:06:24.331Z,75.16
2022-09-14T14:09:00.314Z,74.85
2022-09-14T14:11:33.119Z,74.79
2022-09-14T14:14:17.822Z,75.13
2022-09-14T14:17:17.794Z,76.38
2022-09-14T14:19:45.790Z,74.64
2022-09-14T14:22:17.711Z,74.04
2022-09-14T14:25:11.739Z,74.10
2022-09-14T14:27:35.374Z,77.94
2022-09-14T14:30:11.905Z,78.31
2022-09-14T14:32:38.439Z,81.72
2022-09-14T14:35:13.887Z,81.34
2022-09-14T14:37:40.381Z,82.53
2022-09-14T14:40:08.118Z,83.71
2022-09-14T14:42:34.750Z,83.76
2022-09-14T14:45:01.257Z,86.16
2022-09-14T14:47:27.747Z,87.18
2022-09-14T14:49:54.254Z,86.23
2022-09-14T14:52:22.171Z,87.06
2022-09-14T14:54:49.089Z,87.04
2022-09-14T14:57:15.574Z,88.11
2022-09-14T14:59:42.066Z,87.29
2022-09-14T15:02:09.203Z,87.23
2022-09-14T15:04:35.682Z,88.06
2022-09-14T15:07:02.154Z,87.83
2022-09-14T15:09:30.067Z,88.45
2022-09-14T15:11:56.738Z,89.55
2022-09-14T15:14:26.943Z,89.78
2022-09-14T15:16:54.509Z,89.73
2022-09-14T15:19:21.045Z,90.07
2022-09-14T15:21:47.601Z,89.47
2022-09-14T15:24:20.363Z,90.81
2022-09-14T15:26:48.232Z,91.14
2022-09-14T15:29:14.768Z,91.19
2022-09-14T15:31:41.392Z,91.80
2022-09-14T15:34:07.896Z,92.09
2022-09-14T15:36:35.162Z,92.11
2022-09-14T15:39:01.937Z,91.83
2022-09-14T15:41:28.422Z,91.59
2022-09-14T15:43:56.268Z,91.63
2022-09-14T15:46:22.750Z,91.70
2022-09-14T15:48:49.394Z,91.72
2022-09-14T15:51:15.898Z,92.35
2022-09-14T15:53:42.537Z,92.66
2022-09-14T15:56:09.853Z,92.66
2022-09-14T15:58:36.594Z,92.83
2022-09-14T16:01:08.435Z,95.80
2022-09-14T16:03:34.991Z,97.11
2022-09-14T16:06:01.575Z,98.90
2022-09-14T16:08:28.133Z,98.13
2022-09-14T16:10:57.785Z,98.28
2022-09-14T16:13:24.257Z,98.65
2022-09-14T16:15:50.732Z,97.31
2022-09-14T16:18:18.558Z,94.00
2022-09-14T16:20:45.107Z,95.06
2022-09-14T16:23:11.668Z,94.91
2022-09-14T16:25:39.044Z,94.72
2022-09-14T16:28:05.537Z,94.88
2022-09-14T16:30:32.078Z,95.40
2022-09-14T16:32:58.671Z,95.77
2022-09-14T16:35:27.568Z,97.64
2022-09-14T16:37:54.036Z,98.78
2022-09-14T16:40:20.600Z,98.58
2022-09-14T16:42:47.091Z,98.52
2022-09-14T16:45:13.663Z,98.67
2022-09-14T16:47:40.168Z,98.20
2022-09-14T16:50:06.929Z,97.17
2022-09-14T16:52:34.754Z,97.23
2022-09-14T16:55:01.266Z,96.50
2022-09-14T16:57:27.743Z,96.83
2022-09-14T16:59:54.227Z,97.02
2022-09-14T17:02:20.821Z,97.26
2022-09-14T17:04:47.343Z,97.51
2022-09-14T17:07:13.900Z,97.87
2022-09-14T17:09:41.755Z,97.24
2022-09-14T17:12:08.285Z,97.02
2022-09-14T17:14:34.869Z,96.82
2022-09-14T17:17:01.428Z,97.29
2022-09-14T17:19:28.640Z,97.61
2022-09-14T17:21:55.171Z,98.73
2022-09-14T17:24:22.496Z,99.68
2022-09-14T17:26:50.542Z,99.00
2022-09-14T17:29:17.631Z,99.06
2022-09-14T17:31:44.904Z,99.10
2022-09-14T17:34:13.192Z,99.19
2022-09-14T17:36:39.911Z,98.99
2022-09-14T17:39:11.803Z,98.70
2022-09-14T17:41:39.190Z,98.86
2022-09-14T17:44:09.643Z,99.00
2022-09-14T17:46:41.421Z,99.26
2022-09-14T17:49:12.710Z,100.00
2022-09-14T17:51:39.899Z,100.00
2022-09-14T17:54:06.709Z,100.00
2022-09-14T17:56:33.214Z,99.68
2022-09-14T17:59:03.775Z,99.49
2022-09-14T18:01:32.986Z,99.68
2022-09-14T18:04:01.563Z,99.28
2022-09-14T18:06:30.180Z,99.17
2022-09-14T18:09:00.111Z,99.00
2022-09-14T18:11:26.865Z,99.00
2022-09-14T18:13:53.393Z,99.00
2022-09-14T18:16:22.237Z,98.97
2022-09-14T18:18:50.191Z,98.65
2022-09-14T18:21:16.981Z,98.92
2022-09-14T18:23:43.457Z,98.58
2022-09-14T18:26:10.000Z,98.76
2022-09-14T18:28:36.562Z,98.71
2022-09-14T18:31:06.593Z,98.51
2022-09-14T18:33:34.057Z,98.51
2022-09-14T18:36:02.898Z,98.57
2022-09-14T18:38:29.705Z,98.76
2022-09-14T18:41:02.942Z,100.00
2022-09-14T18:43:29.429Z,100.00
2022-09-14T18:45:55.913Z,100.00
2022-09-14T18:48:22.655Z,100.00
2022-09-14T18:50:50.219Z,100.00
2022-09-14T18:53:18.052Z,100.00
2022-09-14T18:55:44.549Z,100.00
2022-09-14T18:58:11.049Z,100.00
2022-09-14T19:00:41.759Z,100.00
2022-09-14T19:03:09.848Z,99.98
2022-09-14T19:05:39.251Z,100.00
2022-09-14T19:08:05.745Z,100.00
2022-09-14T19:10:35.829Z,100.00
2022-09-14T19:13:02.348Z,100.00
2022-09-14T19:15:32.566Z,100.00
2022-09-14T19:17:59.528Z,100.00
2022-09-14T19:20:31.274Z,100.00
2022-09-14T19:23:09.768Z,100.00
2022-09-14T19:25:38.875Z,100.00
2022-09-14T19:28:05.770Z,100.00
2022-09-14T19:30:32.500Z,100.00
2022-09-14T19:32:59.323Z,100.00
2022-09-14T19:35:26.026Z,100.00
2022-09-14T19:37:52.602Z,100.00
2022-09-14T19:40:19.175Z,100.00
2022-09-14T19:42:47.161Z,100.00
2022-09-14T19:45:13.894Z,100.00
2022-09-14T19:47:40.414Z,100.00
2022-09-14T19:50:08.195Z,100.00
2022-09-14T19:52:34.739Z,100.00
2022-09-14T19:55:01.249Z,100.00
2022-09-14T19:57:27.875Z,100.00
2022-09-14T19:59:55.710Z,100.00
2022-09-14T20:02:22.332Z,100.00
2022-09-14T20:04:48.979Z,100.00
2022-09-14T20:07:15.529Z,100.00
2022-09-14T20:09:42.040Z,100.00
2022-09-14T20:12:08.607Z,100.00
2022-09-14T20:14:35.100Z,100.00
2022-09-14T20:17:02.942Z,100.00
2022-09-14T20:19:29.482Z,100.00
2022-09-14T20:21:56.540Z,100.00
2022-09-14T20:24:24.658Z,100.00
2022-09-14T20:26:53.141Z,100.00
2022-09-14T20:29:21.474Z,100.00
2022-09-14T20:31:48.611Z,100.00
2022-09-14T20:34:18.455Z,100.00
2022-09-14T20:36:44.975Z,100.00
2022-09-14T20:39:11.503Z,100.00
2022-09-14T20:41:38.132Z,100.00
2022-09-14T20:44:04.978Z,100.00
2022-09-14T20:46:33.295Z,100.00
2022-09-14T20:49:00.454Z,100.00
2022-09-14T20:51:28.506Z,100.00
2022-09-14T20:53:55.402Z,100.00
2022-09-14T20:56:24.287Z,100.00
2022-09-14T20:58:54.262Z,100.00
2022-09-14T21:01:22.719Z,100.00
2022-09-14T21:03:50.332Z,100.00
2022-09-14T21:06:19.396Z,100.00
2022-09-14T21:08:47.654Z,100.00
2022-09-14T21:11:16.103Z,100.00
2022-09-14T21:13:43.618Z,100.00
2022-09-14T21:16:11.893Z,100.00
2022-09-14T21:18:38.938Z,100.00
2022-09-14T21:21:06.476Z,100.00
2022-09-14T21:23:33.558Z,100.00
2022-09-14T21:26:01.630Z,100.00
2022-09-14T21:28:28.178Z,100.00
2022-09-14T21:31:03.898Z,100.00
2022-09-14T21:33:32.273Z,100.00
2022-09-14T21:36:03.416Z,100.00
2022-09-14T21:38:29.951Z,100.00
2022-09-14T21:40:56.441Z,100.00
2022-09-14T21:43:24.294Z,100.00
2022-09-14T21:45:50.851Z,100.00
2022-09-14T21:48:17.413Z,100.00
2022-09-14T21:50:47.268Z,100.00
2022-09-14T21:53:14.073Z,100.00
2022-09-14T21:55:41.161Z,100.00
2022-09-14T21:58:08.025Z,100.00
2022-09-14T22:00:35.888Z,100.00
2022-09-14T22:03:02.488Z,100.00
2022-09-14T22:05:28.989Z,100.00
2022-09-14T22:07:55.478Z,100.00
2022-09-14T22:10:21.960Z,100.00
2022-09-14T22:12:48.478Z,100.00
2022-09-14T22:15:15.079Z,100.00
2022-09-14T22:17:42.925Z,100.00
2022-09-14T22:20:10.467Z,100.00
2022-09-14T22:22:36.959Z,100.00
2022-09-14T22:25:05.089Z,100.00
2022-09-14T22:27:31.578Z,100.00
2022-09-14T22:29:58.043Z,100.00
2022-09-14T22:32:24.569Z,100.00
2022-09-14T22:34:52.406Z,100.00
2022-09-14T22:37:18.915Z,100.00
2022-09-14T22:39:45.444Z,100.00
2022-09-14T22:42:11.977Z,100.00
2022-09-14T22:44:38.468Z,100.00
2022-09-14T22:47:05.144Z,100.00
2022-09-14T22:49:31.618Z,100.00
2022-09-14T22:51:59.471Z,100.00
2022-09-14T22:54:25.971Z,100.00
2022-09-14T22:56:52.516Z,100.00
2022-09-14T22:59:19.060Z,100.00
2022-09-14T23:01:45.650Z,100.00
2022-09-14T23:04:13.465Z,100.00
2022-09-14T23:06:42.872Z,100.00
2022-09-14T23:09:12.939Z,100.00
2022-09-14T23:11:39.458Z,100.00
2022-09-14T23:14:05.929Z,100.00
2022-09-14T23:16:32.510Z,100.00
2022-09-14T23:19:01.389Z,100.00
2022-09-14T23:21:29.373Z,100.00
2022-09-14T23:23:57.949Z,100.00
2022-09-14T23:26:26.574Z,100.00
2022-09-14T23:28:54.531Z,100.00
2022-09-14T23:31:21.878Z,100.00
2022-09-14T23:33:49.803Z,100.00
2022-09-14T23:36:16.324Z,100.00
2022-09-14T23:38:42.856Z,100.00
2022-09-14T23:41:09.351Z,100.00
2022-09-14T23:43:37.189Z,100.00
2022-09-14T23:46:03.811Z,100.00
2022-09-14T23:48:30.385Z,100.00
2022-09-14T23:50:58.319Z,100.00
2022-09-14T23:53:25.118Z,100.00
2022-09-14T23:55:52.140Z,100.00
2022-09-14T23:58:18.685Z,100.00
